sensor_id;sensor_type;location;lat;lon;timestamp;P1;durP1;ratioP1;P2;durP2;ratioP2
9960;SDS011;5021;51.506;11.320;2022-12-20T00:01:06;21.97;;;14.37;;
9960;SDS011;5021;51.506;11.320;2022-12-20T00:03:33;21.73;;;14.40;;
9960;SDS011;5021;51.506;11.320;2022-12-20T00:05:58;22.50;;;15.40;;
9960;SDS011;5021;51.506;11.320;2022-12-20T00:08:24;23.97;;;16.80;;
9960;SDS011;5021;51.506;11.320;2022-12-20T00:10:50;22.27;;;14.83;;
9960;SDS011;5021;51.506;11.320;2022-12-20T00:13:16;19.67;;;15.10;;
9960;SDS011;5021;51.506;11.320;2022-12-20T00:15:42;21.00;;;14.47;;
9960;SDS011;5021;51.506;11.320;2022-12-20T00:18:08;17.67;;;14.10;;
9960;SDS011;5021;51.506;11.320;2022-12-20T00:20:34;20.17;;;13.87;;
9960;SDS011;5021;51.506;11.320;2022-12-20T00:23:00;20.57;;;14.47;;
9960;SDS011;5021;51.506;11.320;2022-12-20T00:25:26;18.37;;;13.60;;
9960;SDS011;5021;51.506;11.320;2022-12-20T00:27:52;17.97;;;12.90;;
9960;SDS011;5021;51.506;11.320;2022-12-20T00:30:18;20.33;;;14.37;;
9960;SDS011;5021;51.506;11.320;2022-12-20T00:32:44;20.87;;;16.13;;
9960;SDS011;5021;51.506;11.320;2022-12-20T00:35:10;22.10;;;15.30;;
9960;SDS011;5021;51.506;11.320;2022-12-20T00:37:37;21.13;;;15.57;;
9960;SDS011;5021;51.506;11.320;2022-12-20T00:40:04;22.67;;;15.83;;
9960;SDS011;5021;51.506;11.320;2022-12-20T00:42:30;20.93;;;15.40;;
9960;SDS011;5021;51.506;11.320;2022-12-20T00:44:56;23.97;;;15.17;;
9960;SDS011;5021;51.506;11.320;2022-12-20T00:47:22;22.87;;;15.37;;
9960;SDS011;5021;51.506;11.320;2022-12-20T00:49:48;25.13;;;15.63;;
9960;SDS011;5021;51.506;11.320;2022-12-20T00:52:14;20.17;;;15.17;;
9960;SDS011;5021;51.506;11.320;2022-12-20T00:54:40;21.70;;;15.20;;
9960;SDS011;5021;51.506;11.320;2022-12-20T00:57:06;19.90;;;14.13;;
9960;SDS011;5021;51.506;11.320;2022-12-20T00:59:32;21.73;;;13.97;;
9960;SDS011;5021;51.506;11.320;2022-12-20T01:01:58;22.50;;;15.13;;
9960;SDS011;5021;51.506;11.320;2022-12-20T01:04:24;21.33;;;14.50;;
9960;SDS011;5021;51.506;11.320;2022-12-20T01:06:50;19.40;;;14.43;;
9960;SDS011;5021;51.506;11.320;2022-12-20T01:09:16;19.10;;;14.50;;
9960;SDS011;5021;51.506;11.320;2022-12-20T01:11:42;22.87;;;14.63;;
9960;SDS011;5021;51.506;11.320;2022-12-20T01:14:12;22.13;;;15.43;;
9960;SDS011;5021;51.506;11.320;2022-12-20T01:16:40;20.20;;;15.23;;
9960;SDS011;5021;51.506;11.320;2022-12-20T01:19:07;22.23;;;15.83;;
9960;SDS011;5021;51.506;11.320;2022-12-20T01:21:33;23.83;;;15.67;;
9960;SDS011;5021;51.506;11.320;2022-12-20T01:23:59;18.97;;;14.73;;
9960;SDS011;5021;51.506;11.320;2022-12-20T01:26:26;20.73;;;15.47;;
9960;SDS011;5021;51.506;11.320;2022-12-20T01:28:53;19.33;;;14.07;;
9960;SDS011;5021;51.506;11.320;2022-12-20T01:31:20;21.10;;;14.83;;
9960;SDS011;5021;51.506;11.320;2022-12-20T01:33:46;20.10;;;14.70;;
9960;SDS011;5021;51.506;11.320;2022-12-20T01:36:14;20.47;;;14.87;;
9960;SDS011;5021;51.506;11.320;2022-12-20T01:38:40;19.83;;;14.77;;
9960;SDS011;5021;51.506;11.320;2022-12-20T01:41:07;20.20;;;14.83;;
9960;SDS011;5021;51.506;11.320;2022-12-20T01:46:19;21.23;;;14.60;;
9960;SDS011;5021;51.506;11.320;2022-12-20T01:48:47;19.97;;;14.30;;
9960;SDS011;5021;51.506;11.320;2022-12-20T01:51:14;21.73;;;14.53;;
9960;SDS011;5021;51.506;11.320;2022-12-20T01:53:40;21.27;;;13.63;;
9960;SDS011;5021;51.506;11.320;2022-12-20T01:56:06;19.97;;;14.00;;
9960;SDS011;5021;51.506;11.320;2022-12-20T01:58:33;19.57;;;14.97;;
9960;SDS011;5021;51.506;11.320;2022-12-20T02:01:00;17.73;;;13.83;;
9960;SDS011;5021;51.506;11.320;2022-12-20T02:03:26;16.10;;;12.80;;
9960;SDS011;5021;51.506;11.320;2022-12-20T02:05:52;19.43;;;13.47;;
9960;SDS011;5021;51.506;11.320;2022-12-20T02:08:18;16.90;;;13.33;;
9960;SDS011;5021;51.506;11.320;2022-12-20T02:10:53;17.33;;;13.07;;
9960;SDS011;5021;51.506;11.320;2022-12-20T02:13:43;17.20;;;13.10;;
9960;SDS011;5021;51.506;11.320;2022-12-20T02:16:11;19.47;;;14.17;;
9960;SDS011;5021;51.506;11.320;2022-12-20T02:18:49;17.80;;;12.93;;
9960;SDS011;5021;51.506;11.320;2022-12-20T02:21:22;17.90;;;13.83;;
9960;SDS011;5021;51.506;11.320;2022-12-20T02:32:01;20.07;;;13.93;;
9960;SDS011;5021;51.506;11.320;2022-12-20T02:34:30;17.30;;;12.63;;
9960;SDS011;5021;51.506;11.320;2022-12-20T02:36:56;17.47;;;12.97;;
9960;SDS011;5021;51.506;11.320;2022-12-20T02:39:22;15.97;;;13.10;;
9960;SDS011;5021;51.506;11.320;2022-12-20T02:41:54;14.93;;;11.80;;
9960;SDS011;5021;51.506;11.320;2022-12-20T02:44:23;16.77;;;12.33;;
9960;SDS011;5021;51.506;11.320;2022-12-20T02:47:11;15.80;;;12.13;;
9960;SDS011;5021;51.506;11.320;2022-12-20T02:49:38;14.77;;;11.73;;
9960;SDS011;5021;51.506;11.320;2022-12-20T02:52:06;17.67;;;13.47;;
9960;SDS011;5021;51.506;11.320;2022-12-20T02:54:32;17.40;;;12.83;;
9960;SDS011;5021;51.506;11.320;2022-12-20T02:57:08;15.70;;;12.47;;
9960;SDS011;5021;51.506;11.320;2022-12-20T02:59:40;17.80;;;12.40;;
9960;SDS011;5021;51.506;11.320;2022-12-20T03:02:09;18.67;;;14.20;;
9960;SDS011;5021;51.506;11.320;2022-12-20T03:04:36;17.73;;;12.87;;
9960;SDS011;5021;51.506;11.320;2022-12-20T03:07:05;19.20;;;14.07;;
9960;SDS011;5021;51.506;11.320;2022-12-20T03:09:32;17.63;;;13.90;;
9960;SDS011;5021;51.506;11.320;2022-12-20T03:11:58;18.77;;;13.80;;
9960;SDS011;5021;51.506;11.320;2022-12-20T03:14:24;17.43;;;13.73;;
9960;SDS011;5021;51.506;11.320;2022-12-20T03:16:50;17.83;;;13.37;;
9960;SDS011;5021;51.506;11.320;2022-12-20T03:19:16;23.13;;;15.83;;
9960;SDS011;5021;51.506;11.320;2022-12-20T03:21:42;19.40;;;15.33;;
9960;SDS011;5021;51.506;11.320;2022-12-20T03:24:08;19.37;;;14.07;;
9960;SDS011;5021;51.506;11.320;2022-12-20T03:26:38;18.63;;;13.57;;
9960;SDS011;5021;51.506;11.320;2022-12-20T03:29:04;19.03;;;14.40;;
9960;SDS011;5021;51.506;11.320;2022-12-20T03:31:30;19.13;;;14.87;;
9960;SDS011;5021;51.506;11.320;2022-12-20T03:33:56;15.73;;;13.27;;
9960;SDS011;5021;51.506;11.320;2022-12-20T03:36:23;17.23;;;13.23;;
9960;SDS011;5021;51.506;11.320;2022-12-20T03:38:49;19.70;;;15.23;;
9960;SDS011;5021;51.506;11.320;2022-12-20T03:41:15;17.40;;;13.40;;
9960;SDS011;5021;51.506;11.320;2022-12-20T03:43:41;17.20;;;12.40;;
9960;SDS011;5021;51.506;11.320;2022-12-20T03:46:07;17.23;;;13.67;;
9960;SDS011;5021;51.506;11.320;2022-12-20T03:48:33;16.87;;;13.20;;
9960;SDS011;5021;51.506;11.320;2022-12-20T03:50:59;20.20;;;13.80;;
9960;SDS011;5021;51.506;11.320;2022-12-20T03:53:25;18.57;;;14.53;;
9960;SDS011;5021;51.506;11.320;2022-12-20T03:55:51;19.33;;;14.43;;
9960;SDS011;5021;51.506;11.320;2022-12-20T03:58:17;20.07;;;14.80;;
9960;SDS011;5021;51.506;11.320;2022-12-20T04:00:43;18.20;;;13.83;;
9960;SDS011;5021;51.506;11.320;2022-12-20T04:03:09;18.63;;;14.50;;
9960;SDS011;5021;51.506;11.320;2022-12-20T04:05:35;18.63;;;14.13;;
9960;SDS011;5021;51.506;11.320;2022-12-20T04:08:01;21.20;;;13.93;;
9960;SDS011;5021;51.506;11.320;2022-12-20T04:10:27;16.63;;;13.30;;
9960;SDS011;5021;51.506;11.320;2022-12-20T04:12:53;18.70;;;14.10;;
9960;SDS011;5021;51.506;11.320;2022-12-20T04:15:18;16.10;;;13.27;;
9960;SDS011;5021;51.506;11.320;2022-12-20T04:17:44;18.80;;;13.60;;
9960;SDS011;5021;51.506;11.320;2022-12-20T04:20:14;16.00;;;13.80;;
9960;SDS011;5021;51.506;11.320;2022-12-20T04:22:44;18.37;;;13.23;;
9960;SDS011;5021;51.506;11.320;2022-12-20T04:25:10;18.23;;;14.33;;
9960;SDS011;5021;51.506;11.320;2022-12-20T04:27:36;19.07;;;13.27;;
9960;SDS011;5021;51.506;11.320;2022-12-20T04:30:02;17.47;;;13.13;;
9960;SDS011;5021;51.506;11.320;2022-12-20T04:32:28;18.90;;;14.87;;
9960;SDS011;5021;51.506;11.320;2022-12-20T04:34:54;21.03;;;13.97;;
9960;SDS011;5021;51.506;11.320;2022-12-20T04:37:20;19.87;;;14.77;;
9960;SDS011;5021;51.506;11.320;2022-12-20T04:39:46;18.93;;;14.47;;
9960;SDS011;5021;51.506;11.320;2022-12-20T04:42:12;20.27;;;15.53;;
9960;SDS011;5021;51.506;11.320;2022-12-20T04:44:38;20.33;;;14.33;;
9960;SDS011;5021;51.506;11.320;2022-12-20T04:47:04;20.10;;;14.43;;
9960;SDS011;5021;51.506;11.320;2022-12-20T04:49:30;21.30;;;15.53;;
9960;SDS011;5021;51.506;11.320;2022-12-20T04:51:56;18.63;;;14.03;;
9960;SDS011;5021;51.506;11.320;2022-12-20T04:54:42;23.77;;;16.27;;
9960;SDS011;5021;51.506;11.320;2022-12-20T04:57:10;23.23;;;15.93;;
9960;SDS011;5021;51.506;11.320;2022-12-20T04:59:36;20.83;;;15.17;;
9960;SDS011;5021;51.506;11.320;2022-12-20T05:02:02;21.13;;;15.73;;
9960;SDS011;5021;51.506;11.320;2022-12-20T05:04:28;20.50;;;14.87;;
9960;SDS011;5021;51.506;11.320;2022-12-20T05:06:54;20.77;;;15.77;;
9960;SDS011;5021;51.506;11.320;2022-12-20T05:09:20;19.73;;;15.70;;
9960;SDS011;5021;51.506;11.320;2022-12-20T05:11:46;20.40;;;15.10;;
9960;SDS011;5021;51.506;11.320;2022-12-20T05:14:11;20.40;;;14.90;;
9960;SDS011;5021;51.506;11.320;2022-12-20T05:16:37;20.37;;;14.83;;
9960;SDS011;5021;51.506;11.320;2022-12-20T05:19:03;18.63;;;15.30;;
9960;SDS011;5021;51.506;11.320;2022-12-20T05:21:29;19.10;;;14.50;;
9960;SDS011;5021;51.506;11.320;2022-12-20T05:24:14;18.77;;;14.80;;
9960;SDS011;5021;51.506;11.320;2022-12-20T05:26:59;18.47;;;14.67;;
9960;SDS011;5021;51.506;11.320;2022-12-20T05:29:25;20.80;;;13.73;;
9960;SDS011;5021;51.506;11.320;2022-12-20T05:31:51;18.30;;;14.10;;
9960;SDS011;5021;51.506;11.320;2022-12-20T05:34:17;16.93;;;12.47;;
9960;SDS011;5021;51.506;11.320;2022-12-20T05:36:43;17.03;;;13.43;;
9960;SDS011;5021;51.506;11.320;2022-12-20T05:39:09;20.37;;;14.43;;
9960;SDS011;5021;51.506;11.320;2022-12-20T05:41:38;17.67;;;13.00;;
9960;SDS011;5021;51.506;11.320;2022-12-20T05:44:05;20.53;;;13.60;;
9960;SDS011;5021;51.506;11.320;2022-12-20T05:46:31;16.97;;;13.13;;
9960;SDS011;5021;51.506;11.320;2022-12-20T05:48:57;18.27;;;13.07;;
9960;SDS011;5021;51.506;11.320;2022-12-20T05:51:23;19.37;;;13.63;;
9960;SDS011;5021;51.506;11.320;2022-12-20T05:53:49;19.03;;;13.97;;
9960;SDS011;5021;51.506;11.320;2022-12-20T05:56:15;15.90;;;12.97;;
9960;SDS011;5021;51.506;11.320;2022-12-20T05:58:41;17.17;;;13.97;;
9960;SDS011;5021;51.506;11.320;2022-12-20T06:01:07;19.80;;;14.17;;
9960;SDS011;5021;51.506;11.320;2022-12-20T06:03:34;19.77;;;14.33;;
9960;SDS011;5021;51.506;11.320;2022-12-20T06:06:01;22.20;;;14.63;;
9960;SDS011;5021;51.506;11.320;2022-12-20T06:08:27;20.97;;;15.00;;
9960;SDS011;5021;51.506;11.320;2022-12-20T06:10:53;19.10;;;15.37;;
9960;SDS011;5021;51.506;11.320;2022-12-20T06:13:19;22.50;;;14.90;;
9960;SDS011;5021;51.506;11.320;2022-12-20T06:15:45;21.03;;;15.13;;
9960;SDS011;5021;51.506;11.320;2022-12-20T06:18:11;20.77;;;15.47;;
9960;SDS011;5021;51.506;11.320;2022-12-20T06:20:37;22.37;;;15.53;;
9960;SDS011;5021;51.506;11.320;2022-12-20T06:23:03;20.70;;;14.33;;
9960;SDS011;5021;51.506;11.320;2022-12-20T06:25:29;21.23;;;15.70;;
9960;SDS011;5021;51.506;11.320;2022-12-20T06:27:55;19.83;;;14.67;;
9960;SDS011;5021;51.506;11.320;2022-12-20T06:30:21;20.77;;;15.53;;
9960;SDS011;5021;51.506;11.320;2022-12-20T06:32:48;20.33;;;14.63;;
9960;SDS011;5021;51.506;11.320;2022-12-20T06:35:14;18.33;;;14.47;;
9960;SDS011;5021;51.506;11.320;2022-12-20T06:37:40;20.87;;;13.93;;
9960;SDS011;5021;51.506;11.320;2022-12-20T06:40:07;17.00;;;13.90;;
9960;SDS011;5021;51.506;11.320;2022-12-20T06:42:33;21.67;;;14.83;;
9960;SDS011;5021;51.506;11.320;2022-12-20T06:44:59;22.33;;;14.77;;
9960;SDS011;5021;51.506;11.320;2022-12-20T06:47:25;16.80;;;13.80;;
9960;SDS011;5021;51.506;11.320;2022-12-20T06:49:51;17.30;;;14.27;;
9960;SDS011;5021;51.506;11.320;2022-12-20T06:52:17;18.57;;;14.20;;
9960;SDS011;5021;51.506;11.320;2022-12-20T06:54:43;16.53;;;13.17;;
9960;SDS011;5021;51.506;11.320;2022-12-20T06:57:09;16.73;;;13.57;;
9960;SDS011;5021;51.506;11.320;2022-12-20T06:59:35;19.50;;;14.17;;
9960;SDS011;5021;51.506;11.320;2022-12-20T07:02:01;16.93;;;13.37;;
9960;SDS011;5021;51.506;11.320;2022-12-20T07:04:27;19.77;;;14.40;;
9960;SDS011;5021;51.506;11.320;2022-12-20T07:06:53;16.60;;;14.03;;
9960;SDS011;5021;51.506;11.320;2022-12-20T07:09:19;17.17;;;13.53;;
9960;SDS011;5021;51.506;11.320;2022-12-20T07:11:45;17.47;;;13.00;;
9960;SDS011;5021;51.506;11.320;2022-12-20T07:14:11;17.30;;;13.23;;
9960;SDS011;5021;51.506;11.320;2022-12-20T07:16:37;18.90;;;13.83;;
9960;SDS011;5021;51.506;11.320;2022-12-20T07:19:05;18.73;;;13.93;;
9960;SDS011;5021;51.506;11.320;2022-12-20T07:21:31;18.60;;;13.87;;
9960;SDS011;5021;51.506;11.320;2022-12-20T07:23:57;18.47;;;13.83;;
9960;SDS011;5021;51.506;11.320;2022-12-20T07:26:23;16.87;;;13.17;;
9960;SDS011;5021;51.506;11.320;2022-12-20T07:28:49;15.03;;;12.57;;
9960;SDS011;5021;51.506;11.320;2022-12-20T07:31:15;16.30;;;12.70;;
9960;SDS011;5021;51.506;11.320;2022-12-20T07:33:41;15.30;;;12.57;;
9960;SDS011;5021;51.506;11.320;2022-12-20T07:36:09;15.93;;;12.90;;
9960;SDS011;5021;51.506;11.320;2022-12-20T07:38:35;14.43;;;11.87;;
9960;SDS011;5021;51.506;11.320;2022-12-20T07:41:12;13.23;;;10.97;;
9960;SDS011;5021;51.506;11.320;2022-12-20T07:43:38;23.13;;;16.23;;
9960;SDS011;5021;51.506;11.320;2022-12-20T07:46:05;18.47;;;13.57;;
9960;SDS011;5021;51.506;11.320;2022-12-20T07:48:31;13.30;;;11.10;;
9960;SDS011;5021;51.506;11.320;2022-12-20T07:50:59;16.77;;;13.27;;
9960;SDS011;5021;51.506;11.320;2022-12-20T07:53:26;18.43;;;13.53;;
9960;SDS011;5021;51.506;11.320;2022-12-20T07:55:53;15.50;;;12.60;;
9960;SDS011;5021;51.506;11.320;2022-12-20T07:58:20;15.90;;;12.23;;
9960;SDS011;5021;51.506;11.320;2022-12-20T08:00:46;15.13;;;12.70;;
9960;SDS011;5021;51.506;11.320;2022-12-20T08:03:22;20.63;;;15.33;;
9960;SDS011;5021;51.506;11.320;2022-12-20T08:05:52;16.63;;;12.37;;
9960;SDS011;5021;51.506;11.320;2022-12-20T08:08:19;17.50;;;13.17;;
9960;SDS011;5021;51.506;11.320;2022-12-20T08:10:46;23.10;;;15.60;;
9960;SDS011;5021;51.506;11.320;2022-12-20T08:13:12;13.80;;;10.63;;
9960;SDS011;5021;51.506;11.320;2022-12-20T08:15:39;12.27;;;8.70;;
9960;SDS011;5021;51.506;11.320;2022-12-20T08:18:05;11.00;;;8.07;;
9960;SDS011;5021;51.506;11.320;2022-12-20T08:20:31;12.57;;;8.97;;
9960;SDS011;5021;51.506;11.320;2022-12-20T08:22:57;10.30;;;8.00;;
9960;SDS011;5021;51.506;11.320;2022-12-20T08:25:23;13.20;;;8.77;;
9960;SDS011;5021;51.506;11.320;2022-12-20T08:27:49;12.60;;;8.23;;
9960;SDS011;5021;51.506;11.320;2022-12-20T08:30:15;12.23;;;8.80;;
9960;SDS011;5021;51.506;11.320;2022-12-20T08:32:41;11.00;;;8.67;;
9960;SDS011;5021;51.506;11.320;2022-12-20T08:35:07;10.47;;;9.00;;
9960;SDS011;5021;51.506;11.320;2022-12-20T08:37:33;11.33;;;8.57;;
9960;SDS011;5021;51.506;11.320;2022-12-20T08:39:59;10.10;;;7.83;;
9960;SDS011;5021;51.506;11.320;2022-12-20T08:42:26;9.80;;;8.03;;
9960;SDS011;5021;51.506;11.320;2022-12-20T08:44:52;8.70;;;7.30;;
9960;SDS011;5021;51.506;11.320;2022-12-20T08:47:18;10.43;;;7.13;;
9960;SDS011;5021;51.506;11.320;2022-12-20T08:49:44;10.90;;;6.77;;
9960;SDS011;5021;51.506;11.320;2022-12-20T08:52:10;8.63;;;6.40;;
9960;SDS011;5021;51.506;11.320;2022-12-20T08:54:36;9.13;;;6.50;;
9960;SDS011;5021;51.506;11.320;2022-12-20T08:57:02;9.00;;;6.80;;
9960;SDS011;5021;51.506;11.320;2022-12-20T08:59:28;9.03;;;6.87;;
9960;SDS011;5021;51.506;11.320;2022-12-20T09:01:54;10.10;;;6.93;;
9960;SDS011;5021;51.506;11.320;2022-12-20T09:04:20;7.73;;;6.67;;
9960;SDS011;5021;51.506;11.320;2022-12-20T09:06:46;8.03;;;6.50;;
9960;SDS011;5021;51.506;11.320;2022-12-20T09:09:12;8.57;;;6.70;;
9960;SDS011;5021;51.506;11.320;2022-12-20T09:11:38;7.77;;;6.57;;
9960;SDS011;5021;51.506;11.320;2022-12-20T09:14:04;8.97;;;7.33;;
9960;SDS011;5021;51.506;11.320;2022-12-20T09:16:32;9.30;;;7.43;;
9960;SDS011;5021;51.506;11.320;2022-12-20T09:18:59;8.90;;;7.77;;
9960;SDS011;5021;51.506;11.320;2022-12-20T09:21:25;10.93;;;8.73;;
9960;SDS011;5021;51.506;11.320;2022-12-20T09:23:52;11.60;;;8.33;;
9960;SDS011;5021;51.506;11.320;2022-12-20T09:26:19;11.10;;;8.93;;
9960;SDS011;5021;51.506;11.320;2022-12-20T09:28:45;10.37;;;7.93;;
9960;SDS011;5021;51.506;11.320;2022-12-20T09:31:12;8.93;;;7.50;;
9960;SDS011;5021;51.506;11.320;2022-12-20T09:33:38;11.97;;;8.60;;
9960;SDS011;5021;51.506;11.320;2022-12-20T09:36:05;9.60;;;8.43;;
9960;SDS011;5021;51.506;11.320;2022-12-20T09:38:31;10.43;;;8.77;;
9960;SDS011;5021;51.506;11.320;2022-12-20T09:40:59;9.87;;;7.67;;
9960;SDS011;5021;51.506;11.320;2022-12-20T09:43:26;9.33;;;7.40;;
9960;SDS011;5021;51.506;11.320;2022-12-20T09:45:56;9.53;;;7.10;;
9960;SDS011;5021;51.506;11.320;2022-12-20T09:48:23;8.03;;;7.13;;
9960;SDS011;5021;51.506;11.320;2022-12-20T09:55:58;8.43;;;6.87;;
9960;SDS011;5021;51.506;11.320;2022-12-20T10:00:51;9.13;;;7.17;;
9960;SDS011;5021;51.506;11.320;2022-12-20T10:03:18;8.93;;;7.17;;
9960;SDS011;5021;51.506;11.320;2022-12-20T10:05:48;9.30;;;7.80;;
9960;SDS011;5021;51.506;11.320;2022-12-20T10:08:20;12.30;;;8.33;;
9960;SDS011;5021;51.506;11.320;2022-12-20T10:10:58;12.47;;;7.93;;
9960;SDS011;5021;51.506;11.320;2022-12-20T10:13:34;9.60;;;8.60;;
9960;SDS011;5021;51.506;11.320;2022-12-20T10:18:43;11.17;;;8.77;;
9960;SDS011;5021;51.506;11.320;2022-12-20T10:23:55;11.63;;;9.30;;
9960;SDS011;5021;51.506;11.320;2022-12-20T10:26:22;11.60;;;9.47;;
9960;SDS011;5021;51.506;11.320;2022-12-20T10:28:48;13.97;;;10.50;;
9960;SDS011;5021;51.506;11.320;2022-12-20T10:31:15;14.27;;;10.87;;
9960;SDS011;5021;51.506;11.320;2022-12-20T10:33:42;13.03;;;11.17;;
9960;SDS011;5021;51.506;11.320;2022-12-20T10:38:44;13.27;;;9.83;;
9960;SDS011;5021;51.506;11.320;2022-12-20T10:41:15;12.63;;;9.93;;
9960;SDS011;5021;51.506;11.320;2022-12-20T10:43:43;11.63;;;9.23;;
9960;SDS011;5021;51.506;11.320;2022-12-20T10:46:09;12.87;;;9.37;;
9960;SDS011;5021;51.506;11.320;2022-12-20T10:48:42;11.83;;;8.83;;
9960;SDS011;5021;51.506;11.320;2022-12-20T10:53:35;11.57;;;9.20;;
9960;SDS011;5021;51.506;11.320;2022-12-20T10:58:36;10.83;;;8.47;;
9960;SDS011;5021;51.506;11.320;2022-12-20T11:01:13;8.63;;;7.73;;
9960;SDS011;5021;51.506;11.320;2022-12-20T11:03:50;7.77;;;6.70;;
9960;SDS011;5021;51.506;11.320;2022-12-20T11:06:16;9.63;;;6.67;;
9960;SDS011;5021;51.506;11.320;2022-12-20T11:08:42;7.30;;;6.20;;
9960;SDS011;5021;51.506;11.320;2022-12-20T11:11:10;7.00;;;6.30;;
9960;SDS011;5021;51.506;11.320;2022-12-20T11:13:37;9.13;;;6.13;;
9960;SDS011;5021;51.506;11.320;2022-12-20T11:16:03;6.83;;;6.13;;
9960;SDS011;5021;51.506;11.320;2022-12-20T11:24:01;6.83;;;6.13;;
9960;SDS011;5021;51.506;11.320;2022-12-20T11:29:18;7.37;;;6.20;;
9960;SDS011;5021;51.506;11.320;2022-12-20T11:32:01;9.10;;;7.33;;
9960;SDS011;5021;51.506;11.320;2022-12-20T11:34:39;9.57;;;6.73;;
9960;SDS011;5021;51.506;11.320;2022-12-20T11:47:49;8.23;;;6.97;;
9960;SDS011;5021;51.506;11.320;2022-12-20T11:50:32;8.40;;;7.00;;
9960;SDS011;5021;51.506;11.320;2022-12-20T11:53:01;10.17;;;7.77;;
9960;SDS011;5021;51.506;11.320;2022-12-20T11:55:32;12.77;;;7.60;;
9960;SDS011;5021;51.506;11.320;2022-12-20T11:58:15;11.70;;;8.13;;
9960;SDS011;5021;51.506;11.320;2022-12-20T12:00:45;9.00;;;7.80;;
9960;SDS011;5021;51.506;11.320;2022-12-20T12:08:06;10.63;;;8.87;;
9960;SDS011;5021;51.506;11.320;2022-12-20T12:10:34;10.83;;;8.47;;
9960;SDS011;5021;51.506;11.320;2022-12-20T12:18:19;10.23;;;8.83;;
9960;SDS011;5021;51.506;11.320;2022-12-20T12:25:58;8.83;;;7.70;;
9960;SDS011;5021;51.506;11.320;2022-12-20T12:28:24;9.33;;;7.77;;
9960;SDS011;5021;51.506;11.320;2022-12-20T12:30:55;8.17;;;6.60;;
9960;SDS011;5021;51.506;11.320;2022-12-20T12:33:40;8.10;;;7.03;;
9960;SDS011;5021;51.506;11.320;2022-12-20T12:36:10;12.33;;;8.20;;
9960;SDS011;5021;51.506;11.320;2022-12-20T12:44:19;9.50;;;7.20;;
9960;SDS011;5021;51.506;11.320;2022-12-20T12:46:51;7.83;;;6.53;;
9960;SDS011;5021;51.506;11.320;2022-12-20T12:49:20;7.37;;;6.37;;
9960;SDS011;5021;51.506;11.320;2022-12-20T12:51:51;7.10;;;5.70;;
9960;SDS011;5021;51.506;11.320;2022-12-20T12:54:22;8.63;;;5.90;;
9960;SDS011;5021;51.506;11.320;2022-12-20T12:56:50;7.70;;;5.80;;
9960;SDS011;5021;51.506;11.320;2022-12-20T13:04:51;7.17;;;5.57;;
9960;SDS011;5021;51.506;11.320;2022-12-20T13:25:29;11.57;;;9.27;;
9960;SDS011;5021;51.506;11.320;2022-12-20T13:28:41;10.20;;;8.90;;
9960;SDS011;5021;51.506;11.320;2022-12-20T13:30:42;12.03;;;9.23;;
9960;SDS011;5021;51.506;11.320;2022-12-20T13:33:15;12.07;;;9.30;;
9960;SDS011;5021;51.506;11.320;2022-12-20T13:35:54;11.37;;;9.37;;
9960;SDS011;5021;51.506;11.320;2022-12-20T13:40:59;12.87;;;10.03;;
9960;SDS011;5021;51.506;11.320;2022-12-20T13:43:30;15.13;;;11.37;;
9960;SDS011;5021;51.506;11.320;2022-12-20T13:51:21;13.83;;;10.77;;
9960;SDS011;5021;51.506;11.320;2022-12-20T13:53:51;13.03;;;11.20;;
9960;SDS011;5021;51.506;11.320;2022-12-20T13:56:59;12.13;;;10.83;;
9960;SDS011;5021;51.506;11.320;2022-12-20T13:59:11;13.37;;;10.30;;
9960;SDS011;5021;51.506;11.320;2022-12-20T14:01:45;13.47;;;10.57;;
9960;SDS011;5021;51.506;11.320;2022-12-20T14:04:12;12.93;;;10.93;;
9960;SDS011;5021;51.506;11.320;2022-12-20T14:06:39;10.87;;;9.37;;
9960;SDS011;5021;51.506;11.320;2022-12-20T14:09:17;12.73;;;11.07;;
9960;SDS011;5021;51.506;11.320;2022-12-20T14:11:50;13.43;;;10.33;;
9960;SDS011;5021;51.506;11.320;2022-12-20T14:14:16;11.33;;;10.07;;
9960;SDS011;5021;51.506;11.320;2022-12-20T14:16:42;13.20;;;10.90;;
9960;SDS011;5021;51.506;11.320;2022-12-20T14:19:12;13.90;;;9.90;;
9960;SDS011;5021;51.506;11.320;2022-12-20T14:21:40;13.03;;;9.97;;
9960;SDS011;5021;51.506;11.320;2022-12-20T14:24:12;11.47;;;8.83;;
9960;SDS011;5021;51.506;11.320;2022-12-20T14:26:40;12.03;;;8.90;;
9960;SDS011;5021;51.506;11.320;2022-12-20T14:29:13;10.87;;;8.67;;
9960;SDS011;5021;51.506;11.320;2022-12-20T14:31:43;9.47;;;8.50;;
9960;SDS011;5021;51.506;11.320;2022-12-20T14:36:45;9.57;;;8.00;;
9960;SDS011;5021;51.506;11.320;2022-12-20T14:41:57;9.57;;;7.33;;
9960;SDS011;5021;51.506;11.320;2022-12-20T14:44:24;8.07;;;6.77;;
9960;SDS011;5021;51.506;11.320;2022-12-20T14:46:52;9.57;;;7.77;;
9960;SDS011;5021;51.506;11.320;2022-12-20T14:49:25;8.83;;;7.47;;
9960;SDS011;5021;51.506;11.320;2022-12-20T14:52:03;8.17;;;7.23;;
9960;SDS011;5021;51.506;11.320;2022-12-20T14:54:30;9.27;;;7.50;;
9960;SDS011;5021;51.506;11.320;2022-12-20T14:56:57;8.60;;;7.47;;
9960;SDS011;5021;51.506;11.320;2022-12-20T14:59:27;10.77;;;8.50;;
9960;SDS011;5021;51.506;11.320;2022-12-20T15:01:53;10.90;;;8.20;;
9960;SDS011;5021;51.506;11.320;2022-12-20T15:04:24;12.00;;;9.87;;
9960;SDS011;5021;51.506;11.320;2022-12-20T15:06:54;12.93;;;10.27;;
9960;SDS011;5021;51.506;11.320;2022-12-20T15:09:21;9.80;;;8.80;;
9960;SDS011;5021;51.506;11.320;2022-12-20T15:11:47;12.93;;;8.97;;
9960;SDS011;5021;51.506;11.320;2022-12-20T15:14:20;11.87;;;9.70;;
9960;SDS011;5021;51.506;11.320;2022-12-20T15:16:47;12.77;;;10.07;;
9960;SDS011;5021;51.506;11.320;2022-12-20T15:19:13;14.17;;;10.53;;
9960;SDS011;5021;51.506;11.320;2022-12-20T15:21:42;10.90;;;9.73;;
9960;SDS011;5021;51.506;11.320;2022-12-20T15:24:10;13.20;;;9.77;;
9960;SDS011;5021;51.506;11.320;2022-12-20T15:26:37;12.53;;;10.33;;
9960;SDS011;5021;51.506;11.320;2022-12-20T15:29:03;11.10;;;9.10;;
9960;SDS011;5021;51.506;11.320;2022-12-20T15:31:29;11.03;;;9.80;;
9960;SDS011;5021;51.506;11.320;2022-12-20T15:33:58;11.33;;;9.20;;
9960;SDS011;5021;51.506;11.320;2022-12-20T15:36:26;11.37;;;9.83;;
9960;SDS011;5021;51.506;11.320;2022-12-20T15:38:53;11.53;;;8.90;;
9960;SDS011;5021;51.506;11.320;2022-12-20T15:43:49;10.00;;;9.00;;
9960;SDS011;5021;51.506;11.320;2022-12-20T15:46:16;9.67;;;8.67;;
9960;SDS011;5021;51.506;11.320;2022-12-20T15:48:42;11.13;;;9.10;;
9960;SDS011;5021;51.506;11.320;2022-12-20T15:51:13;10.67;;;9.10;;
9960;SDS011;5021;51.506;11.320;2022-12-20T15:53:40;12.67;;;9.37;;
9960;SDS011;5021;51.506;11.320;2022-12-20T15:56:07;12.00;;;10.17;;
9960;SDS011;5021;51.506;11.320;2022-12-20T15:58:39;11.80;;;9.40;;
9960;SDS011;5021;51.506;11.320;2022-12-20T16:01:04;13.60;;;9.87;;
9960;SDS011;5021;51.506;11.320;2022-12-20T16:03:30;12.47;;;9.23;;
9960;SDS011;5021;51.506;11.320;2022-12-20T16:05:56;13.17;;;10.07;;
9960;SDS011;5021;51.506;11.320;2022-12-20T16:08:22;12.10;;;9.87;;
9960;SDS011;5021;51.506;11.320;2022-12-20T16:10:49;12.07;;;9.87;;
9960;SDS011;5021;51.506;11.320;2022-12-20T16:13:16;12.30;;;10.40;;
9960;SDS011;5021;51.506;11.320;2022-12-20T16:15:45;12.83;;;10.73;;
9960;SDS011;5021;51.506;11.320;2022-12-20T16:18:11;14.17;;;11.17;;
9960;SDS011;5021;51.506;11.320;2022-12-20T16:20:37;13.33;;;11.80;;
9960;SDS011;5021;51.506;11.320;2022-12-20T16:23:03;16.30;;;13.90;;
9960;SDS011;5021;51.506;11.320;2022-12-20T16:25:32;15.50;;;12.87;;
9960;SDS011;5021;51.506;11.320;2022-12-20T16:27:58;14.57;;;11.00;;
9960;SDS011;5021;51.506;11.320;2022-12-20T16:30:24;12.13;;;10.53;;
9960;SDS011;5021;51.506;11.320;2022-12-20T16:32:51;13.10;;;10.60;;
9960;SDS011;5021;51.506;11.320;2022-12-20T16:35:24;14.30;;;11.73;;